sensor_id;sensor_type;location;lat;lon;timestamp;P1;durP1;ratioP1;P2;durP2;ratioP2
6372;SDS011;3219;51.362;7.074;2022-10-19T00:01:09;11.70;;;5.13;;
6372;SDS011;3219;51.362;7.074;2022-10-19T00:03:37;22.05;;;5.15;;
6372;SDS011;3219;51.362;7.074;2022-10-19T00:06:14;16.67;;;4.72;;
6372;SDS011;3219;51.362;7.074;2022-10-19T00:08:42;14.55;;;5.07;;
6372;SDS011;3219;51.362;7.074;2022-10-19T00:11:11;13.50;;;4.70;;
6372;SDS011;3219;51.362;7.074;2022-10-19T00:13:38;12.50;;;4.07;;
6372;SDS011;3219;51.362;7.074;2022-10-19T00:16:06;16.27;;;5.45;;
6372;SDS011;3219;51.362;7.074;2022-10-19T00:18:34;12.65;;;4.70;;
6372;SDS011;3219;51.362;7.074;2022-10-19T00:21:02;14.07;;;5.30;;
6372;SDS011;3219;51.362;7.074;2022-10-19T00:23:29;16.60;;;5.32;;
6372;SDS011;3219;51.362;7.074;2022-10-19T00:25:56;18.17;;;5.10;;
6372;SDS011;3219;51.362;7.074;2022-10-19T00:28:25;9.13;;;4.68;;
6372;SDS011;3219;51.362;7.074;2022-10-19T00:30:52;11.98;;;4.45;;
6372;SDS011;3219;51.362;7.074;2022-10-19T00:33:20;19.88;;;5.43;;
6372;SDS011;3219;51.362;7.074;2022-10-19T00:35:47;12.60;;;4.60;;
6372;SDS011;3219;51.362;7.074;2022-10-19T00:38:15;12.35;;;4.22;;
6372;SDS011;3219;51.362;7.074;2022-10-19T00:40:42;15.57;;;5.38;;
6372;SDS011;3219;51.362;7.074;2022-10-19T00:43:11;13.32;;;5.20;;
6372;SDS011;3219;51.362;7.074;2022-10-19T00:45:40;21.35;;;6.00;;
6372;SDS011;3219;51.362;7.074;2022-10-19T00:48:07;21.20;;;5.85;;
6372;SDS011;3219;51.362;7.074;2022-10-19T00:50:34;14.25;;;5.05;;
6372;SDS011;3219;51.362;7.074;2022-10-19T00:53:02;12.82;;;5.32;;
6372;SDS011;3219;51.362;7.074;2022-10-19T00:55:29;11.95;;;4.68;;
6372;SDS011;3219;51.362;7.074;2022-10-19T00:57:56;12.70;;;5.32;;
6372;SDS011;3219;51.362;7.074;2022-10-19T01:00:23;13.45;;;5.00;;
6372;SDS011;3219;51.362;7.074;2022-10-19T01:02:52;10.73;;;4.25;;
6372;SDS011;3219;51.362;7.074;2022-10-19T01:05:19;13.50;;;4.45;;
6372;SDS011;3219;51.362;7.074;2022-10-19T01:07:47;15.50;;;4.45;;
6372;SDS011;3219;51.362;7.074;2022-10-19T01:10:14;18.52;;;5.13;;
6372;SDS011;3219;51.362;7.074;2022-10-19T01:12:54;13.60;;;5.22;;
6372;SDS011;3219;51.362;7.074;2022-10-19T01:15:27;10.30;;;4.50;;
6372;SDS011;3219;51.362;7.074;2022-10-19T01:17:59;15.93;;;4.80;;
6372;SDS011;3219;51.362;7.074;2022-10-19T01:20:32;10.40;;;4.50;;
6372;SDS011;3219;51.362;7.074;2022-10-19T01:23:07;18.58;;;4.90;;
6372;SDS011;3219;51.362;7.074;2022-10-19T01:25:43;14.93;;;5.13;;
6372;SDS011;3219;51.362;7.074;2022-10-19T01:28:19;12.55;;;4.45;;
6372;SDS011;3219;51.362;7.074;2022-10-19T01:30:53;17.30;;;4.65;;
6372;SDS011;3219;51.362;7.074;2022-10-19T01:33:26;12.60;;;4.63;;
6372;SDS011;3219;51.362;7.074;2022-10-19T01:36:01;13.40;;;4.55;;
6372;SDS011;3219;51.362;7.074;2022-10-19T01:38:32;19.60;;;5.47;;
6372;SDS011;3219;51.362;7.074;2022-10-19T01:41:03;17.75;;;4.80;;
6372;SDS011;3219;51.362;7.074;2022-10-19T01:43:32;18.83;;;4.72;;
6372;SDS011;3219;51.362;7.074;2022-10-19T01:46:06;15.80;;;4.65;;
6372;SDS011;3219;51.362;7.074;2022-10-19T01:48:39;15.70;;;4.43;;
6372;SDS011;3219;51.362;7.074;2022-10-19T01:51:08;13.40;;;4.65;;
6372;SDS011;3219;51.362;7.074;2022-10-19T01:53:48;14.32;;;4.50;;
6372;SDS011;3219;51.362;7.074;2022-10-19T01:56:17;15.90;;;4.63;;
6372;SDS011;3219;51.362;7.074;2022-10-19T01:58:46;16.67;;;5.45;;
6372;SDS011;3219;51.362;7.074;2022-10-19T02:01:15;15.77;;;5.28;;
6372;SDS011;3219;51.362;7.074;2022-10-19T02:03:44;15.90;;;5.63;;
6372;SDS011;3219;51.362;7.074;2022-10-19T02:06:11;12.63;;;5.03;;
6372;SDS011;3219;51.362;7.074;2022-10-19T02:08:41;13.65;;;5.20;;
6372;SDS011;3219;51.362;7.074;2022-10-19T02:11:09;13.10;;;5.38;;
6372;SDS011;3219;51.362;7.074;2022-10-19T02:13:42;13.10;;;5.82;;
6372;SDS011;3219;51.362;7.074;2022-10-19T02:16:12;20.23;;;6.38;;
6372;SDS011;3219;51.362;7.074;2022-10-19T02:18:44;17.30;;;6.55;;
6372;SDS011;3219;51.362;7.074;2022-10-19T02:21:11;10.55;;;5.60;;
6372;SDS011;3219;51.362;7.074;2022-10-19T02:23:39;16.92;;;6.53;;
6372;SDS011;3219;51.362;7.074;2022-10-19T02:26:06;15.93;;;6.72;;
6372;SDS011;3219;51.362;7.074;2022-10-19T02:28:33;12.18;;;6.43;;
6372;SDS011;3219;51.362;7.074;2022-10-19T02:31:01;17.38;;;6.80;;
6372;SDS011;3219;51.362;7.074;2022-10-19T02:33:28;19.75;;;7.53;;
6372;SDS011;3219;51.362;7.074;2022-10-19T02:35:57;20.33;;;6.80;;
6372;SDS011;3219;51.362;7.074;2022-10-19T02:38:24;14.05;;;6.47;;
6372;SDS011;3219;51.362;7.074;2022-10-19T02:40:53;16.65;;;7.22;;
6372;SDS011;3219;51.362;7.074;2022-10-19T02:43:22;14.50;;;7.50;;
6372;SDS011;3219;51.362;7.074;2022-10-19T02:45:51;15.65;;;6.95;;
6372;SDS011;3219;51.362;7.074;2022-10-19T02:48:20;17.00;;;7.38;;
6372;SDS011;3219;51.362;7.074;2022-10-19T02:50:48;12.10;;;6.97;;
6372;SDS011;3219;51.362;7.074;2022-10-19T02:53:17;16.92;;;7.93;;
6372;SDS011;3219;51.362;7.074;2022-10-19T02:55:44;15.57;;;7.25;;
6372;SDS011;3219;51.362;7.074;2022-10-19T02:58:12;16.30;;;6.85;;
6372;SDS011;3219;51.362;7.074;2022-10-19T03:00:39;15.48;;;6.57;;
6372;SDS011;3219;51.362;7.074;2022-10-19T03:03:08;13.35;;;7.28;;
6372;SDS011;3219;51.362;7.074;2022-10-19T03:05:35;15.60;;;7.18;;
6372;SDS011;3219;51.362;7.074;2022-10-19T03:08:05;16.48;;;7.40;;
6372;SDS011;3219;51.362;7.074;2022-10-19T03:10:34;15.15;;;7.35;;
6372;SDS011;3219;51.362;7.074;2022-10-19T03:13:01;16.70;;;7.40;;
6372;SDS011;3219;51.362;7.074;2022-10-19T03:15:28;14.27;;;6.95;;
6372;SDS011;3219;51.362;7.074;2022-10-19T03:17:55;14.20;;;7.55;;
6372;SDS011;3219;51.362;7.074;2022-10-19T03:20:23;15.70;;;6.63;;
6372;SDS011;3219;51.362;7.074;2022-10-19T03:22:52;15.77;;;7.90;;
6372;SDS011;3219;51.362;7.074;2022-10-19T03:25:19;15.38;;;8.38;;
6372;SDS011;3219;51.362;7.074;2022-10-19T03:27:48;17.20;;;8.40;;
6372;SDS011;3219;51.362;7.074;2022-10-19T03:30:19;19.48;;;8.95;;
6372;SDS011;3219;51.362;7.074;2022-10-19T03:32:47;19.25;;;9.45;;
6372;SDS011;3219;51.362;7.074;2022-10-19T03:35:14;20.05;;;8.77;;
6372;SDS011;3219;51.362;7.074;2022-10-19T03:37:41;22.38;;;8.82;;
6372;SDS011;3219;51.362;7.074;2022-10-19T03:40:08;20.40;;;8.95;;
6372;SDS011;3219;51.362;7.074;2022-10-19T03:42:35;18.67;;;9.00;;
6372;SDS011;3219;51.362;7.074;2022-10-19T03:45:04;23.63;;;10.05;;
6372;SDS011;3219;51.362;7.074;2022-10-19T03:47:32;22.13;;;10.43;;
6372;SDS011;3219;51.362;7.074;2022-10-19T03:49:59;20.98;;;10.80;;
6372;SDS011;3219;51.362;7.074;2022-10-19T03:52:26;24.80;;;11.00;;
6372;SDS011;3219;51.362;7.074;2022-10-19T03:54:53;18.17;;;11.07;;
6372;SDS011;3219;51.362;7.074;2022-10-19T03:57:20;23.35;;;11.65;;
6372;SDS011;3219;51.362;7.074;2022-10-19T03:59:47;24.55;;;13.35;;
6372;SDS011;3219;51.362;7.074;2022-10-19T04:02:15;33.58;;;13.23;;
6372;SDS011;3219;51.362;7.074;2022-10-19T04:04:42;21.83;;;12.98;;
6372;SDS011;3219;51.362;7.074;2022-10-19T04:07:10;23.45;;;12.02;;
6372;SDS011;3219;51.362;7.074;2022-10-19T04:09:37;22.77;;;11.18;;
6372;SDS011;3219;51.362;7.074;2022-10-19T04:12:05;23.80;;;11.02;;
6372;SDS011;3219;51.362;7.074;2022-10-19T04:14:32;26.08;;;11.15;;
6372;SDS011;3219;51.362;7.074;2022-10-19T04:16:59;21.75;;;10.50;;
6372;SDS011;3219;51.362;7.074;2022-10-19T04:19:28;25.63;;;10.75;;
6372;SDS011;3219;51.362;7.074;2022-10-19T04:21:55;23.08;;;11.07;;
6372;SDS011;3219;51.362;7.074;2022-10-19T04:24:22;19.65;;;11.00;;
6372;SDS011;3219;51.362;7.074;2022-10-19T04:26:50;17.60;;;9.68;;
6372;SDS011;3219;51.362;7.074;2022-10-19T04:29:18;19.83;;;10.48;;
6372;SDS011;3219;51.362;7.074;2022-10-19T04:31:47;20.95;;;9.95;;
6372;SDS011;3219;51.362;7.074;2022-10-19T04:34:14;19.63;;;10.13;;
6372;SDS011;3219;51.362;7.074;2022-10-19T04:36:43;18.02;;;10.63;;
6372;SDS011;3219;51.362;7.074;2022-10-19T04:39:10;25.42;;;10.25;;
6372;SDS011;3219;51.362;7.074;2022-10-19T04:41:37;18.17;;;9.73;;
6372;SDS011;3219;51.362;7.074;2022-10-19T04:44:05;21.45;;;9.68;;
6372;SDS011;3219;51.362;7.074;2022-10-19T04:46:32;18.42;;;9.48;;
6372;SDS011;3219;51.362;7.074;2022-10-19T04:48:59;16.48;;;8.98;;
6372;SDS011;3219;51.362;7.074;2022-10-19T04:51:28;19.55;;;8.85;;
6372;SDS011;3219;51.362;7.074;2022-10-19T04:53:56;15.05;;;9.30;;
6372;SDS011;3219;51.362;7.074;2022-10-19T04:56:24;17.08;;;9.20;;
6372;SDS011;3219;51.362;7.074;2022-10-19T04:58:53;21.70;;;9.20;;
6372;SDS011;3219;51.362;7.074;2022-10-19T05:01:20;17.48;;;10.23;;
6372;SDS011;3219;51.362;7.074;2022-10-19T05:03:51;14.77;;;8.95;;
6372;SDS011;3219;51.362;7.074;2022-10-19T05:06:18;19.70;;;8.90;;
6372;SDS011;3219;51.362;7.074;2022-10-19T05:08:46;20.35;;;9.50;;
6372;SDS011;3219;51.362;7.074;2022-10-19T05:11:16;17.45;;;9.50;;
6372;SDS011;3219;51.362;7.074;2022-10-19T05:13:43;20.60;;;9.88;;
6372;SDS011;3219;51.362;7.074;2022-10-19T05:16:11;18.48;;;8.65;;
6372;SDS011;3219;51.362;7.074;2022-10-19T05:18:38;21.13;;;9.20;;
6372;SDS011;3219;51.362;7.074;2022-10-19T05:21:06;17.05;;;8.15;;
6372;SDS011;3219;51.362;7.074;2022-10-19T05:23:33;15.98;;;8.80;;
6372;SDS011;3219;51.362;7.074;2022-10-19T05:26:01;17.35;;;8.88;;
6372;SDS011;3219;51.362;7.074;2022-10-19T05:28:29;16.60;;;8.90;;
6372;SDS011;3219;51.362;7.074;2022-10-19T05:31:03;17.27;;;8.75;;
6372;SDS011;3219;51.362;7.074;2022-10-19T05:33:33;26.70;;;9.52;;
6372;SDS011;3219;51.362;7.074;2022-10-19T05:36:11;16.92;;;9.00;;
6372;SDS011;3219;51.362;7.074;2022-10-19T05:38:38;17.35;;;9.05;;
6372;SDS011;3219;51.362;7.074;2022-10-19T05:41:06;21.65;;;10.02;;
6372;SDS011;3219;51.362;7.074;2022-10-19T05:43:34;20.70;;;9.70;;
6372;SDS011;3219;51.362;7.074;2022-10-19T05:46:02;21.58;;;10.82;;
6372;SDS011;3219;51.362;7.074;2022-10-19T05:48:29;19.85;;;10.40;;
6372;SDS011;3219;51.362;7.074;2022-10-19T05:50:57;17.73;;;9.98;;
6372;SDS011;3219;51.362;7.074;2022-10-19T05:53:25;20.58;;;10.07;;
6372;SDS011;3219;51.362;7.074;2022-10-19T05:55:52;14.27;;;9.98;;
6372;SDS011;3219;51.362;7.074;2022-10-19T05:58:19;16.92;;;9.60;;
6372;SDS011;3219;51.362;7.074;2022-10-19T06:00:51;16.13;;;9.32;;
6372;SDS011;3219;51.362;7.074;2022-10-19T06:03:18;23.80;;;10.38;;
6372;SDS011;3219;51.362;7.074;2022-10-19T06:05:46;22.38;;;10.40;;
6372;SDS011;3219;51.362;7.074;2022-10-19T06:08:13;23.30;;;10.88;;
6372;SDS011;3219;51.362;7.074;2022-10-19T06:10:40;20.95;;;10.13;;
6372;SDS011;3219;51.362;7.074;2022-10-19T06:13:07;19.23;;;9.35;;
6372;SDS011;3219;51.362;7.074;2022-10-19T06:15:35;21.98;;;9.90;;
6372;SDS011;3219;51.362;7.074;2022-10-19T06:18:05;19.80;;;10.40;;
6372;SDS011;3219;51.362;7.074;2022-10-19T06:20:33;20.50;;;10.32;;
6372;SDS011;3219;51.362;7.074;2022-10-19T06:23:00;16.10;;;9.30;;
6372;SDS011;3219;51.362;7.074;2022-10-19T06:25:28;19.10;;;10.00;;
6372;SDS011;3219;51.362;7.074;2022-10-19T06:27:55;19.15;;;10.82;;
6372;SDS011;3219;51.362;7.074;2022-10-19T06:30:22;19.08;;;10.35;;
6372;SDS011;3219;51.362;7.074;2022-10-19T06:32:49;19.00;;;10.60;;
6372;SDS011;3219;51.362;7.074;2022-10-19T06:35:18;18.70;;;10.38;;
6372;SDS011;3219;51.362;7.074;2022-10-19T06:37:45;15.35;;;9.15;;
6372;SDS011;3219;51.362;7.074;2022-10-19T06:40:12;19.25;;;9.40;;
6372;SDS011;3219;51.362;7.074;2022-10-19T06:42:39;20.70;;;9.52;;
6372;SDS011;3219;51.362;7.074;2022-10-19T06:45:06;17.85;;;9.57;;
6372;SDS011;3219;51.362;7.074;2022-10-19T06:47:34;14.85;;;9.00;;
6372;SDS011;3219;51.362;7.074;2022-10-19T06:50:01;18.52;;;9.25;;
6372;SDS011;3219;51.362;7.074;2022-10-19T06:52:30;16.25;;;9.02;;
6372;SDS011;3219;51.362;7.074;2022-10-19T06:54:57;17.48;;;9.30;;
6372;SDS011;3219;51.362;7.074;2022-10-19T06:57:24;18.80;;;8.73;;
6372;SDS011;3219;51.362;7.074;2022-10-19T06:59:52;15.68;;;9.73;;
6372;SDS011;3219;51.362;7.074;2022-10-19T07:02:19;14.75;;;8.88;;
6372;SDS011;3219;51.362;7.074;2022-10-19T07:04:46;19.13;;;8.40;;
6372;SDS011;3219;51.362;7.074;2022-10-19T07:07:13;18.50;;;8.70;;
6372;SDS011;3219;51.362;7.074;2022-10-19T07:09:42;21.50;;;9.00;;
6372;SDS011;3219;51.362;7.074;2022-10-19T07:12:09;18.13;;;9.00;;
6372;SDS011;3219;51.362;7.074;2022-10-19T07:14:36;21.23;;;8.50;;
6372;SDS011;3219;51.362;7.074;2022-10-19T07:17:03;17.10;;;7.78;;
6372;SDS011;3219;51.362;7.074;2022-10-19T07:19:31;17.98;;;8.18;;
6372;SDS011;3219;51.362;7.074;2022-10-19T07:21:58;13.27;;;8.00;;
6372;SDS011;3219;51.362;7.074;2022-10-19T07:24:25;17.40;;;8.00;;
6372;SDS011;3219;51.362;7.074;2022-10-19T07:26:53;17.90;;;8.00;;
6372;SDS011;3219;51.362;7.074;2022-10-19T07:29:20;17.27;;;8.25;;
6372;SDS011;3219;51.362;7.074;2022-10-19T07:31:47;14.35;;;7.97;;
6372;SDS011;3219;51.362;7.074;2022-10-19T07:34:15;15.45;;;8.07;;
6372;SDS011;3219;51.362;7.074;2022-10-19T07:36:43;19.48;;;9.00;;
6372;SDS011;3219;51.362;7.074;2022-10-19T07:39:12;17.42;;;8.57;;
6372;SDS011;3219;51.362;7.074;2022-10-19T07:41:41;14.35;;;7.72;;
6372;SDS011;3219;51.362;7.074;2022-10-19T07:44:10;21.95;;;8.10;;
6372;SDS011;3219;51.362;7.074;2022-10-19T07:46:37;16.23;;;7.15;;
6372;SDS011;3219;51.362;7.074;2022-10-19T07:49:05;12.18;;;7.25;;
6372;SDS011;3219;51.362;7.074;2022-10-19T07:51:33;13.80;;;7.00;;
6372;SDS011;3219;51.362;7.074;2022-10-19T07:54:01;15.68;;;7.50;;
6372;SDS011;3219;51.362;7.074;2022-10-19T07:56:28;16.30;;;7.10;;
6372;SDS011;3219;51.362;7.074;2022-10-19T07:58:56;18.55;;;7.53;;
6372;SDS011;3219;51.362;7.074;2022-10-19T08:01:25;14.35;;;6.72;;
6372;SDS011;3219;51.362;7.074;2022-10-19T08:03:53;12.18;;;5.72;;
6372;SDS011;3219;51.362;7.074;2022-10-19T08:06:20;12.32;;;5.43;;
6372;SDS011;3219;51.362;7.074;2022-10-19T08:08:48;15.70;;;6.03;;
6372;SDS011;3219;51.362;7.074;2022-10-19T08:11:16;13.35;;;5.72;;
6372;SDS011;3219;51.362;7.074;2022-10-19T08:13:43;8.90;;;5.05;;
6372;SDS011;3219;51.362;7.074;2022-10-19T08:16:21;12.60;;;5.20;;
6372;SDS011;3219;51.362;7.074;2022-10-19T08:18:51;14.07;;;5.07;;
6372;SDS011;3219;51.362;7.074;2022-10-19T08:21:18;11.82;;;4.70;;
6372;SDS011;3219;51.362;7.074;2022-10-19T08:23:45;11.85;;;4.65;;
6372;SDS011;3219;51.362;7.074;2022-10-19T08:26:12;13.57;;;5.30;;
6372;SDS011;3219;51.362;7.074;2022-10-19T08:28:39;7.88;;;4.13;;
6372;SDS011;3219;51.362;7.074;2022-10-19T08:31:10;10.98;;;4.10;;
6372;SDS011;3219;51.362;7.074;2022-10-19T08:33:37;14.00;;;5.32;;
6372;SDS011;3219;51.362;7.074;2022-10-19T08:36:07;14.13;;;4.60;;
6372;SDS011;3219;51.362;7.074;2022-10-19T08:38:35;8.30;;;4.22;;
6372;SDS011;3219;51.362;7.074;2022-10-19T08:41:03;11.35;;;4.50;;
6372;SDS011;3219;51.362;7.074;2022-10-19T08:43:34;14.20;;;4.70;;
6372;SDS011;3219;51.362;7.074;2022-10-19T08:46:04;13.43;;;4.63;;
6372;SDS011;3219;51.362;7.074;2022-10-19T08:48:36;12.90;;;4.10;;
6372;SDS011;3219;51.362;7.074;2022-10-19T08:51:08;13.57;;;4.20;;
6372;SDS011;3219;51.362;7.074;2022-10-19T08:53:38;10.65;;;4.25;;
6372;SDS011;3219;51.362;7.074;2022-10-19T08:56:09;14.98;;;4.97;;
6372;SDS011;3219;51.362;7.074;2022-10-19T08:58:45;10.68;;;3.95;;
6372;SDS011;3219;51.362;7.074;2022-10-19T09:01:15;12.52;;;3.95;;
6372;SDS011;3219;51.362;7.074;2022-10-19T09:03:45;17.30;;;4.38;;
6372;SDS011;3219;51.362;7.074;2022-10-19T09:06:17;14.02;;;3.80;;
6372;SDS011;3219;51.362;7.074;2022-10-19T09:08:47;13.55;;;4.10;;
6372;SDS011;3219;51.362;7.074;2022-10-19T09:11:15;9.52;;;4.07;;
6372;SDS011;3219;51.362;7.074;2022-10-19T09:13:46;13.63;;;3.67;;
6372;SDS011;3219;51.362;7.074;2022-10-19T09:16:16;12.05;;;3.42;;
6372;SDS011;3219;51.362;7.074;2022-10-19T09:18:45;16.58;;;4.03;;
6372;SDS011;3219;51.362;7.074;2022-10-19T09:21:13;14.65;;;4.00;;
6372;SDS011;3219;51.362;7.074;2022-10-19T09:23:44;12.40;;;3.60;;
6372;SDS011;3219;51.362;7.074;2022-10-19T09:26:13;12.98;;;2.92;;
6372;SDS011;3219;51.362;7.074;2022-10-19T09:28:43;16.30;;;3.60;;
6372;SDS011;3219;51.362;7.074;2022-10-19T09:31:12;8.18;;;3.10;;
6372;SDS011;3219;51.362;7.074;2022-10-19T09:33:41;11.85;;;3.20;;
6372;SDS011;3219;51.362;7.074;2022-10-19T09:36:08;7.85;;;3.20;;
6372;SDS011;3219;51.362;7.074;2022-10-19T09:38:35;11.88;;;3.30;;
6372;SDS011;3219;51.362;7.074;2022-10-19T09:41:12;12.50;;;3.28;;
6372;SDS011;3219;51.362;7.074;2022-10-19T09:43:42;12.48;;;2.70;;
6372;SDS011;3219;51.362;7.074;2022-10-19T09:46:12;18.15;;;3.60;;
6372;SDS011;3219;51.362;7.074;2022-10-19T09:48:43;9.15;;;2.90;;
6372;SDS011;3219;51.362;7.074;2022-10-19T09:53:42;9.45;;;2.50;;
6372;SDS011;3219;51.362;7.074;2022-10-19T09:56:17;14.27;;;3.10;;
6372;SDS011;3219;51.362;7.074;2022-10-19T09:58:45;12.13;;;3.15;;
6372;SDS011;3219;51.362;7.074;2022-10-19T10:01:27;13.35;;;3.00;;
6372;SDS011;3219;51.362;7.074;2022-10-19T10:06:22;12.07;;;3.38;;
6372;SDS011;3219;51.362;7.074;2022-10-19T10:08:50;8.40;;;2.78;;
6372;SDS011;3219;51.362;7.074;2022-10-19T10:11:23;11.45;;;3.65;;
6372;SDS011;3219;51.362;7.074;2022-10-19T10:13:51;9.52;;;2.95;;
6372;SDS011;3219;51.362;7.074;2022-10-19T10:16:20;8.88;;;2.78;;
6372;SDS011;3219;51.362;7.074;2022-10-19T10:18:49;11.98;;;3.28;;
6372;SDS011;3219;51.362;7.074;2022-10-19T10:21:19;15.27;;;3.78;;
6372;SDS011;3219;51.362;7.074;2022-10-19T10:23:57;10.85;;;3.25;;
6372;SDS011;3219;51.362;7.074;2022-10-19T10:26:26;10.02;;;3.10;;
6372;SDS011;3219;51.362;7.074;2022-10-19T10:28:53;9.48;;;3.17;;
6372;SDS011;3219;51.362;7.074;2022-10-19T10:31:21;10.63;;;2.55;;
6372;SDS011;3219;51.362;7.074;2022-10-19T10:33:53;14.82;;;3.20;;
6372;SDS011;3219;51.362;7.074;2022-10-19T10:38:50;10.02;;;3.60;;
6372;SDS011;3219;51.362;7.074;2022-10-19T10:41:18;12.65;;;2.95;;
6372;SDS011;3219;51.362;7.074;2022-10-19T10:43:53;14.52;;;3.65;;
6372;SDS011;3219;51.362;7.074;2022-10-19T10:46:21;12.60;;;3.55;;
6372;SDS011;3219;51.362;7.074;2022-10-19T10:48:53;8.13;;;3.13;;
6372;SDS011;3219;51.362;7.074;2022-10-19T10:51:22;14.65;;;3.85;;
6372;SDS011;3219;51.362;7.074;2022-10-19T10:53:51;11.95;;;3.72;;
6372;SDS011;3219;51.362;7.074;2022-10-19T10:56:31;10.98;;;2.92;;
6372;SDS011;3219;51.362;7.074;2022-10-19T10:59:00;8.57;;;2.92;;
6372;SDS011;3219;51.362;7.074;2022-10-19T11:01:31;14.10;;;3.17;;
6372;SDS011;3219;51.362;7.074;2022-10-19T11:04:00;12.68;;;3.53;;
6372;SDS011;3219;51.362;7.074;2022-10-19T11:06:29;14.52;;;3.88;;
6372;SDS011;3219;51.362;7.074;2022-10-19T11:08:58;17.50;;;4.40;;
6372;SDS011;3219;51.362;7.074;2022-10-19T11:11:29;13.65;;;3.28;;
6372;SDS011;3219;51.362;7.074;2022-10-19T11:14:03;8.83;;;3.67;;
6372;SDS011;3219;51.362;7.074;2022-10-19T11:16:34;13.38;;;4.03;;
6372;SDS011;3219;51.362;7.074;2022-10-19T11:19:05;13.68;;;3.40;;
6372;SDS011;3219;51.362;7.074;2022-10-19T11:21:35;12.07;;;3.60;;
6372;SDS011;3219;51.362;7.074;2022-10-19T11:24:05;11.80;;;3.53;;
6372;SDS011;3219;51.362;7.074;2022-10-19T11:26:39;7.18;;;2.65;;
6372;SDS011;3219;51.362;7.074;2022-10-19T11:29:17;14.40;;;3.58;;
6372;SDS011;3219;51.362;7.074;2022-10-19T11:31:50;13.33;;;3.17;;
6372;SDS011;3219;51.362;7.074;2022-10-19T11:34:26;19.30;;;3.45;;
6372;SDS011;3219;51.362;7.074;2022-10-19T11:36:57;7.25;;;3.25;;
6372;SDS011;3219;51.362;7.074;2022-10-19T11:39:31;12.45;;;3.72;;
6372;SDS011;3219;51.362;7.074;2022-10-19T11:42:04;11.98;;;3.90;;
6372;SDS011;3219;51.362;7.074;2022-10-19T11:44:37;10.98;;;3.53;;
6372;SDS011;3219;51.362;7.074;2022-10-19T11:47:13;8.07;;;3.55;;
6372;SDS011;3219;51.362;7.074;2022-10-19T11:49:47;8.70;;;3.05;;
6372;SDS011;3219;51.362;7.074;2022-10-19T11:52:18;10.02;;;3.78;;
6372;SDS011;3219;51.362;7.074;2022-10-19T11:54:52;11.02;;;3.28;;
6372;SDS011;3219;51.362;7.074;2022-10-19T11:57:22;9.38;;;3.30;;
6372;SDS011;3219;51.362;7.074;2022-10-19T11:59:58;12.52;;;3.72;;
6372;SDS011;3219;51.362;7.074;2022-10-19T12:02:45;13.38;;;3.28;;
6372;SDS011;3219;51.362;7.074;2022-10-19T12:05:20;14.73;;;3.53;;
6372;SDS011;3219;51.362;7.074;2022-10-19T12:07:54;9.02;;;3.00;;
6372;SDS011;3219;51.362;7.074;2022-10-19T12:10:27;15.20;;;4.30;;
6372;SDS011;3219;51.362;7.074;2022-10-19T12:12:55;11.43;;;3.10;;
6372;SDS011;3219;51.362;7.074;2022-10-19T12:15:26;14.30;;;3.72;;
6372;SDS011;3219;51.362;7.074;2022-10-19T12:17:56;7.35;;;2.90;;
6372;SDS011;3219;51.362;7.074;2022-10-19T12:20:27;12.48;;;3.53;;
6372;SDS011;3219;51.362;7.074;2022-10-19T12:22:55;11.63;;;2.97;;
6372;SDS011;3219;51.362;7.074;2022-10-19T12:25:23;10.85;;;3.15;;
6372;SDS011;3219;51.362;7.074;2022-10-19T12:27:50;7.45;;;2.75;;
6372;SDS011;3219;51.362;7.074;2022-10-19T12:30:18;12.48;;;3.05;;
6372;SDS011;3219;51.362;7.074;2022-10-19T12:32:51;9.75;;;2.72;;
6372;SDS011;3219;51.362;7.074;2022-10-19T12:35:31;9.18;;;2.60;;
6372;SDS011;3219;51.362;7.074;2022-10-19T12:38:02;6.50;;;2.38;;
6372;SDS011;3219;51.362;7.074;2022-10-19T12:40:31;11.15;;;2.88;;
6372;SDS011;3219;51.362;7.074;2022-10-19T12:43:02;13.23;;;2.72;;
6372;SDS011;3219;51.362;7.074;2022-10-19T12:45:31;13.10;;;3.20;;
6372;SDS011;3219;51.362;7.074;2022-10-19T12:48:18;8.23;;;2.33;;
6372;SDS011;3219;51.362;7.074;2022-10-19T12:50:56;12.10;;;2.63;;
6372;SDS011;3219;51.362;7.074;2022-10-19T12:53:24;10.52;;;3.00;;
6372;SDS011;3219;51.362;7.074;2022-10-19T12:55:57;7.82;;;2.30;;
6372;SDS011;3219;51.362;7.074;2022-10-19T12:58:24;8.73;;;2.45;;
6372;SDS011;3219;51.362;7.074;2022-10-19T13:00:58;11.95;;;2.45;;
6372;SDS011;3219;51.362;7.074;2022-10-19T13:03:28;7.13;;;2.53;;
6372;SDS011;3219;51.362;7.074;2022-10-19T13:05:56;13.38;;;2.63;;
6372;SDS011;3219;51.362;7.074;2022-10-19T13:08:25;8.63;;;2.55;;
6372;SDS011;3219;51.362;7.074;2022-10-19T13:11:04;5.93;;;2.22;;
6372;SDS011;3219;51.362;7.074;2022-10-19T13:16:31;7.78;;;2.47;;
6372;SDS011;3219;51.362;7.074;2022-10-19T13:19:04;9.95;;;2.55;;
6372;SDS011;3219;51.362;7.074;2022-10-19T13:21:43;13.57;;;3.08;;
6372;SDS011;3219;51.362;7.074;2022-10-19T13:24:30;9.52;;;2.42;;
6372;SDS011;3219;51.362;7.074;2022-10-19T13:27:20;13.85;;;2.70;;
6372;SDS011;3219;51.362;7.074;2022-10-19T13:29:49;10.67;;;2.50;;
6372;SDS011;3219;51.362;7.074;2022-10-19T13:32:34;8.43;;;2.20;;
6372;SDS011;3219;51.362;7.074;2022-10-19T13:40:30;7.95;;;2.30;;
6372;SDS011;3219;51.362;7.074;2022-10-19T13:42:57;8.15;;;2.40;;
6372;SDS011;3219;51.362;7.074;2022-10-19T13:45:25;11.73;;;2.70;;
6372;SDS011;3219;51.362;7.074;2022-10-19T13:47:52;10.10;;;2.85;;
6372;SDS011;3219;51.362;7.074;2022-10-19T13:50:26;9.95;;;2.10;;
6372;SDS011;3219;51.362;7.074;2022-10-19T13:53:01;7.78;;;2.13;;
6372;SDS011;3219;51.362;7.074;2022-10-19T13:58:23;5.57;;;2.08;;
6372;SDS011;3219;51.362;7.074;2022-10-19T14:00:57;10.00;;;2.40;;
6372;SDS011;3219;51.362;7.074;2022-10-19T14:03:27;11.38;;;2.58;;
6372;SDS011;3219;51.362;7.074;2022-10-19T14:06:02;7.55;;;2.20;;
6372;SDS011;3219;51.362;7.074;2022-10-19T14:08:42;7.10;;;2.50;;
6372;SDS011;3219;51.362;7.074;2022-10-19T14:11:13;12.85;;;2.83;;
6372;SDS011;3219;51.362;7.074;2022-10-19T14:13:42;6.47;;;2.35;;
6372;SDS011;3219;51.362;7.074;2022-10-19T14:16:15;6.40;;;1.98;;
6372;SDS011;3219;51.362;7.074;2022-10-19T14:18:43;10.27;;;2.30;;
6372;SDS011;3219;51.362;7.074;2022-10-19T14:21:10;9.63;;;2.90;;
6372;SDS011;3219;51.362;7.074;2022-10-19T14:23:37;9.23;;;2.55;;
6372;SDS011;3219;51.362;7.074;2022-10-19T14:26:05;8.98;;;2.53;;
6372;SDS011;3219;51.362;7.074;2022-10-19T14:28:33;7.40;;;2.28;;
6372;SDS011;3219;51.362;7.074;2022-10-19T14:31:02;8.95;;;2.25;;
6372;SDS011;3219;51.362;7.074;2022-10-19T14:33:31;11.73;;;2.35;;
6372;SDS011;3219;51.362;7.074;2022-10-19T14:35:58;7.55;;;2.47;;
6372;SDS011;3219;51.362;7.074;2022-10-19T14:38:28;7.82;;;2.10;;
6372;SDS011;3219;51.362;7.074;2022-10-19T14:40:59;12.73;;;2.30;;
6372;SDS011;3219;51.362;7.074;2022-10-19T14:43:27;7.57;;;2.35;;
6372;SDS011;3219;51.362;7.074;2022-10-19T14:46:12;13.65;;;3.22;;
6372;SDS011;3219;51.362;7.074;2022-10-19T14:48:40;6.97;;;2.10;;
6372;SDS011;3219;51.362;7.074;2022-10-19T14:51:13;8.52;;;1.73;;
6372;SDS011;3219;51.362;7.074;2022-10-19T14:53:43;9.70;;;2.20;;
6372;SDS011;3219;51.362;7.074;2022-10-19T14:56:12;6.43;;;1.90;;
6372;SDS011;3219;51.362;7.074;2022-10-19T14:58:42;7.82;;;2.00;;
6372;SDS011;3219;51.362;7.074;2022-10-19T15:01:12;8.68;;;1.77;;
6372;SDS011;3219;51.362;7.074;2022-10-19T15:03:41;6.50;;;1.92;;
6372;SDS011;3219;51.362;7.074;2022-10-19T15:06:15;6.32;;;2.00;;
6372;SDS011;3219;51.362;7.074;2022-10-19T15:08:44;5.78;;;2.13;;
6372;SDS011;3219;51.362;7.074;2022-10-19T15:11:19;7.88;;;2.20;;
6372;SDS011;3219;51.362;7.074;2022-10-19T15:13:47;7.72;;;2.65;;
6372;SDS011;3219;51.362;7.074;2022-10-19T15:16:27;11.30;;;2.40;;
6372;SDS011;3219;51.362;7.074;2022-10-19T15:18:54;7.20;;;2.13;;
6372;SDS011;3219;51.362;7.074;2022-10-19T15:21:21;11.73;;;2.00;;
6372;SDS011;3219;51.362;7.074;2022-10-19T15:23:49;10.38;;;2.45;;
6372;SDS011;3219;51.362;7.074;2022-10-19T15:26:17;10.75;;;2.10;;
6372;SDS011;3219;51.362;7.074;2022-10-19T15:28:45;7.95;;;1.92;;
6372;SDS011;3219;51.362;7.074;2022-10-19T15:31:13;8.82;;;2.10;;
6372;SDS011;3219;51.362;7.074;2022-10-19T15:33:43;12.45;;;2.33;;
6372;SDS011;3219;51.362;7.074;2022-10-19T15:36:11;9.25;;;1.90;;